sensor_id;sensor_type;location;lat;lon;timestamp;temperature;humidity
19522;DHT22;9905;52.126;5.596;2023-06-04T00:02:14;14.00;99.90
19522;DHT22;9905;52.126;5.596;2023-06-04T00:04:40;14.00;99.90
19522;DHT22;9905;52.126;5.596;2023-06-04T00:07:09;13.90;99.90
19522;DHT22;9905;52.126;5.596;2023-06-04T00:09:35;13.90;99.90
19522;DHT22;9905;52.126;5.596;2023-06-04T00:12:02;13.90;99.90
19522;DHT22;9905;52.126;5.596;2023-06-04T00:14:29;13.90;99.90
19522;DHT22;9905;52.126;5.596;2023-06-04T00:16:56;13.90;99.90
19522;DHT22;9905;52.126;5.596;2023-06-04T00:19:23;13.80;99.90
19522;DHT22;9905;52.126;5.596;2023-06-04T00:21:49;13.80;99.90
19522;DHT22;9905;52.126;5.596;2023-06-04T00:24:18;13.70;99.90
19522;DHT22;9905;52.126;5.596;2023-06-04T00:26:44;13.70;99.90
19522;DHT22;9905;52.126;5.596;2023-06-04T00:29:11;13.70;99.90
19522;DHT22;9905;52.126;5.596;2023-06-04T00:31:38;13.70;99.90
19522;DHT22;9905;52.126;5.596;2023-06-04T00:34:05;13.70;99.90
19522;DHT22;9905;52.126;5.596;2023-06-04T00:36:32;13.50;99.90
19522;DHT22;9905;52.126;5.596;2023-06-04T00:38:59;13.50;99.90
19522;DHT22;9905;52.126;5.596;2023-06-04T00:41:27;13.50;99.90
19522;DHT22;9905;52.126;5.596;2023-06-04T00:43:54;13.50;99.90
19522;DHT22;9905;52.126;5.596;2023-06-04T00:46:22;13.50;99.90
19522;DHT22;9905;52.126;5.596;2023-06-04T00:48:51;13.40;99.90
19522;DHT22;9905;52.126;5.596;2023-06-04T00:51:18;13.30;99.90
19522;DHT22;9905;52.126;5.596;2023-06-04T00:53:45;13.30;99.90
19522;DHT22;9905;52.126;5.596;2023-06-04T00:56:12;13.30;99.90
19522;DHT22;9905;52.126;5.596;2023-06-04T00:58:40;13.20;99.90
19522;DHT22;9905;52.126;5.596;2023-06-04T01:01:15;13.20;99.90
19522;DHT22;9905;52.126;5.596;2023-06-04T01:03:45;13.20;99.90
19522;DHT22;9905;52.126;5.596;2023-06-04T01:06:18;13.10;99.90
19522;DHT22;9905;52.126;5.596;2023-06-04T01:08:48;13.10;99.90
19522;DHT22;9905;52.126;5.596;2023-06-04T01:11:14;13.10;99.90
19522;DHT22;9905;52.126;5.596;2023-06-04T01:13:43;13.00;99.90
19522;DHT22;9905;52.126;5.596;2023-06-04T01:16:11;13.00;99.90
19522;DHT22;9905;52.126;5.596;2023-06-04T01:18:39;13.00;99.90
19522;DHT22;9905;52.126;5.596;2023-06-04T01:21:08;12.90;99.90
19522;DHT22;9905;52.126;5.596;2023-06-04T01:23:43;12.90;99.90
19522;DHT22;9905;52.126;5.596;2023-06-04T01:26:12;12.90;99.90
19522;DHT22;9905;52.126;5.596;2023-06-04T01:28:40;12.80;99.90
19522;DHT22;9905;52.126;5.596;2023-06-04T01:31:09;12.80;99.90
19522;DHT22;9905;52.126;5.596;2023-06-04T01:33:36;12.70;99.90
19522;DHT22;9905;52.126;5.596;2023-06-04T01:36:04;12.80;99.90
19522;DHT22;9905;52.126;5.596;2023-06-04T01:38:31;12.70;99.90
19522;DHT22;9905;52.126;5.596;2023-06-04T01:40:58;12.70;99.90
19522;DHT22;9905;52.126;5.596;2023-06-04T01:43:27;12.70;99.90
19522;DHT22;9905;52.126;5.596;2023-06-04T01:45:54;12.60;99.90
19522;DHT22;9905;52.126;5.596;2023-06-04T01:48:23;12.50;99.90
19522;DHT22;9905;52.126;5.596;2023-06-04T01:50:50;12.50;99.90
19522;DHT22;9905;52.126;5.596;2023-06-04T01:53:17;12.40;99.90
19522;DHT22;9905;52.126;5.596;2023-06-04T01:55:44;12.40;99.90
19522;DHT22;9905;52.126;5.596;2023-06-04T01:58:11;12.40;99.90
19522;DHT22;9905;52.126;5.596;2023-06-04T02:00:38;12.40;99.90
19522;DHT22;9905;52.126;5.596;2023-06-04T02:03:05;12.40;99.90
19522;DHT22;9905;52.126;5.596;2023-06-04T02:05:35;12.40;99.90
19522;DHT22;9905;52.126;5.596;2023-06-04T02:08:02;12.40;99.90
19522;DHT22;9905;52.126;5.596;2023-06-04T02:10:30;12.30;99.90
19522;DHT22;9905;52.126;5.596;2023-06-04T02:12:58;12.30;99.90
19522;DHT22;9905;52.126;5.596;2023-06-04T02:15:26;12.40;99.90
19522;DHT22;9905;52.126;5.596;2023-06-04T02:17:56;12.30;99.90
19522;DHT22;9905;52.126;5.596;2023-06-04T02:20:24;12.20;99.90
19522;DHT22;9905;52.126;5.596;2023-06-04T02:22:53;12.20;99.90
19522;DHT22;9905;52.126;5.596;2023-06-04T02:25:21;12.20;99.90
19522;DHT22;9905;52.126;5.596;2023-06-04T02:27:48;12.20;99.90
19522;DHT22;9905;52.126;5.596;2023-06-04T02:30:15;12.10;99.90
19522;DHT22;9905;52.126;5.596;2023-06-04T02:32:42;12.10;99.90
19522;DHT22;9905;52.126;5.596;2023-06-04T02:35:09;12.00;99.90
19522;DHT22;9905;52.126;5.596;2023-06-04T02:37:36;12.00;99.90
19522;DHT22;9905;52.126;5.596;2023-06-04T02:40:05;12.00;99.90
19522;DHT22;9905;52.126;5.596;2023-06-04T02:42:32;11.90;99.90
19522;DHT22;9905;52.126;5.596;2023-06-04T02:44:59;11.90;99.90
19522;DHT22;9905;52.126;5.596;2023-06-04T02:47:27;11.90;99.90
19522;DHT22;9905;52.126;5.596;2023-06-04T02:49:53;11.80;99.90
19522;DHT22;9905;52.126;5.596;2023-06-04T02:52:20;11.80;99.90
19522;DHT22;9905;52.126;5.596;2023-06-04T02:54:48;11.80;99.90
19522;DHT22;9905;52.126;5.596;2023-06-04T02:57:16;11.80;99.90
19522;DHT22;9905;52.126;5.596;2023-06-04T02:59:43;11.80;99.90
19522;DHT22;9905;52.126;5.596;2023-06-04T03:02:10;11.70;99.90
19522;DHT22;9905;52.126;5.596;2023-06-04T03:04:38;11.70;99.90
19522;DHT22;9905;52.126;5.596;2023-06-04T03:07:05;11.70;99.90
19522;DHT22;9905;52.126;5.596;2023-06-04T03:09:33;11.70;99.90
19522;DHT22;9905;52.126;5.596;2023-06-04T03:12:00;11.60;99.90
19522;DHT22;9905;52.126;5.596;2023-06-04T03:14:29;11.60;99.90
19522;DHT22;9905;52.126;5.596;2023-06-04T03:16:58;11.60;99.90
19522;DHT22;9905;52.126;5.596;2023-06-04T03:19:33;11.60;99.90
19522;DHT22;9905;52.126;5.596;2023-06-04T03:22:00;11.60;99.90
19522;DHT22;9905;52.126;5.596;2023-06-04T03:24:33;11.60;99.90
19522;DHT22;9905;52.126;5.596;2023-06-04T03:27:01;11.60;99.90
19522;DHT22;9905;52.126;5.596;2023-06-04T03:29:29;11.50;99.90
19522;DHT22;9905;52.126;5.596;2023-06-04T03:31:57;11.50;99.90
19522;DHT22;9905;52.126;5.596;2023-06-04T03:34:24;11.50;99.90
19522;DHT22;9905;52.126;5.596;2023-06-04T03:36:51;11.40;99.90
19522;DHT22;9905;52.126;5.596;2023-06-04T03:39:18;11.40;99.90
19522;DHT22;9905;52.126;5.596;2023-06-04T03:41:44;11.40;99.90
19522;DHT22;9905;52.126;5.596;2023-06-04T03:44:12;11.50;99.90
19522;DHT22;9905;52.126;5.596;2023-06-04T03:46:41;11.40;99.90
19522;DHT22;9905;52.126;5.596;2023-06-04T03:49:09;11.40;99.90
19522;DHT22;9905;52.126;5.596;2023-06-04T03:51:36;11.30;99.90
19522;DHT22;9905;52.126;5.596;2023-06-04T03:54:03;11.40;99.90
19522;DHT22;9905;52.126;5.596;2023-06-04T03:56:30;11.40;99.90
19522;DHT22;9905;52.126;5.596;2023-06-04T03:58:56;11.40;99.90
19522;DHT22;9905;52.126;5.596;2023-06-04T04:01:24;11.30;99.90
19522;DHT22;9905;52.126;5.596;2023-06-04T04:03:52;11.30;99.90
19522;DHT22;9905;52.126;5.596;2023-06-04T04:06:20;11.30;99.90
19522;DHT22;9905;52.126;5.596;2023-06-04T04:08:47;11.30;99.90
19522;DHT22;9905;52.126;5.596;2023-06-04T04:11:15;11.30;99.90
19522;DHT22;9905;52.126;5.596;2023-06-04T04:13:42;11.30;99.90
19522;DHT22;9905;52.126;5.596;2023-06-04T04:16:08;11.30;99.90
19522;DHT22;9905;52.126;5.596;2023-06-04T04:18:36;11.30;99.90
19522;DHT22;9905;52.126;5.596;2023-06-04T04:21:04;11.30;99.90
19522;DHT22;9905;52.126;5.596;2023-06-04T04:23:31;11.30;99.90
19522;DHT22;9905;52.126;5.596;2023-06-04T04:25:58;11.40;99.90
19522;DHT22;9905;52.126;5.596;2023-06-04T04:28:25;11.40;99.90
19522;DHT22;9905;52.126;5.596;2023-06-04T04:30:54;11.40;99.90
19522;DHT22;9905;52.126;5.596;2023-06-04T04:33:21;11.40;99.90
19522;DHT22;9905;52.126;5.596;2023-06-04T04:35:50;11.50;99.90
19522;DHT22;9905;52.126;5.596;2023-06-04T04:38:19;11.50;99.90
19522;DHT22;9905;52.126;5.596;2023-06-04T04:40:49;11.50;99.90
19522;DHT22;9905;52.126;5.596;2023-06-04T04:43:19;11.50;99.90
19522;DHT22;9905;52.126;5.596;2023-06-04T04:45:46;11.50;99.90
19522;DHT22;9905;52.126;5.596;2023-06-04T04:48:13;11.60;99.90
19522;DHT22;9905;52.126;5.596;2023-06-04T04:50:39;11.60;99.90
19522;DHT22;9905;52.126;5.596;2023-06-04T04:53:06;11.60;99.90
19522;DHT22;9905;52.126;5.596;2023-06-04T04:55:34;11.70;99.90
19522;DHT22;9905;52.126;5.596;2023-06-04T04:58:01;11.70;99.90
19522;DHT22;9905;52.126;5.596;2023-06-04T05:00:28;11.80;99.90
19522;DHT22;9905;52.126;5.596;2023-06-04T05:02:55;11.80;99.90
19522;DHT22;9905;52.126;5.596;2023-06-04T05:05:22;11.80;99.90
19522;DHT22;9905;52.126;5.596;2023-06-04T05:07:49;11.90;99.90
19522;DHT22;9905;52.126;5.596;2023-06-04T05:10:16;11.90;99.90
19522;DHT22;9905;52.126;5.596;2023-06-04T05:12:52;11.90;99.90
19522;DHT22;9905;52.126;5.596;2023-06-04T05:15:19;12.00;99.90
19522;DHT22;9905;52.126;5.596;2023-06-04T05:17:46;12.10;99.90
19522;DHT22;9905;52.126;5.596;2023-06-04T05:20:13;12.10;99.90
19522;DHT22;9905;52.126;5.596;2023-06-04T05:22:41;12.20;99.90
19522;DHT22;9905;52.126;5.596;2023-06-04T05:25:08;12.30;99.90
19522;DHT22;9905;52.126;5.596;2023-06-04T05:27:35;12.30;99.90
19522;DHT22;9905;52.126;5.596;2023-06-04T05:30:04;12.30;99.90
19522;DHT22;9905;52.126;5.596;2023-06-04T05:32:31;12.40;99.90
19522;DHT22;9905;52.126;5.596;2023-06-04T05:34:59;12.40;99.90
19522;DHT22;9905;52.126;5.596;2023-06-04T05:37:29;12.40;99.90
19522;DHT22;9905;52.126;5.596;2023-06-04T05:40:00;12.50;99.90
19522;DHT22;9905;52.126;5.596;2023-06-04T05:42:30;12.60;99.90
19522;DHT22;9905;52.126;5.596;2023-06-04T05:44:57;12.60;99.90
19522;DHT22;9905;52.126;5.596;2023-06-04T05:47:26;12.70;99.90
19522;DHT22;9905;52.126;5.596;2023-06-04T05:49:54;12.80;99.90
19522;DHT22;9905;52.126;5.596;2023-06-04T05:52:20;12.90;99.90
19522;DHT22;9905;52.126;5.596;2023-06-04T05:54:47;12.90;99.90
19522;DHT22;9905;52.126;5.596;2023-06-04T05:57:14;13.00;99.90
19522;DHT22;9905;52.126;5.596;2023-06-04T05:59:41;13.10;99.90
19522;DHT22;9905;52.126;5.596;2023-06-04T06:02:08;13.10;99.90
19522;DHT22;9905;52.126;5.596;2023-06-04T06:04:36;13.20;99.90
19522;DHT22;9905;52.126;5.596;2023-06-04T06:07:03;13.30;99.90
19522;DHT22;9905;52.126;5.596;2023-06-04T06:09:30;13.40;99.90
19522;DHT22;9905;52.126;5.596;2023-06-04T06:11:57;13.60;99.90
19522;DHT22;9905;52.126;5.596;2023-06-04T06:14:24;13.70;99.90
19522;DHT22;9905;52.126;5.596;2023-06-04T06:16:51;13.70;99.90
19522;DHT22;9905;52.126;5.596;2023-06-04T06:19:18;13.80;99.90
19522;DHT22;9905;52.126;5.596;2023-06-04T06:21:46;13.80;99.90
19522;DHT22;9905;52.126;5.596;2023-06-04T06:24:13;13.90;99.90
19522;DHT22;9905;52.126;5.596;2023-06-04T06:26:39;14.00;99.90
19522;DHT22;9905;52.126;5.596;2023-06-04T06:29:06;14.10;99.90
19522;DHT22;9905;52.126;5.596;2023-06-04T06:31:33;14.20;99.90
19522;DHT22;9905;52.126;5.596;2023-06-04T06:34:00;14.30;99.90
19522;DHT22;9905;52.126;5.596;2023-06-04T06:36:27;14.40;99.90
19522;DHT22;9905;52.126;5.596;2023-06-04T06:38:55;14.50;99.90
19522;DHT22;9905;52.126;5.596;2023-06-04T06:41:22;14.60;99.90
19522;DHT22;9905;52.126;5.596;2023-06-04T06:43:49;14.60;99.90
19522;DHT22;9905;52.126;5.596;2023-06-04T06:46:16;14.70;99.90
19522;DHT22;9905;52.126;5.596;2023-06-04T06:48:43;14.80;99.90
19522;DHT22;9905;52.126;5.596;2023-06-04T06:51:10;14.90;99.90
19522;DHT22;9905;52.126;5.596;2023-06-04T06:53:37;15.00;99.90
19522;DHT22;9905;52.126;5.596;2023-06-04T06:56:06;15.10;99.90
19522;DHT22;9905;52.126;5.596;2023-06-04T06:58:33;15.20;99.90
19522;DHT22;9905;52.126;5.596;2023-06-04T07:01:00;15.30;99.90
19522;DHT22;9905;52.126;5.596;2023-06-04T07:03:27;15.40;99.90
19522;DHT22;9905;52.126;5.596;2023-06-04T07:05:54;15.60;99.90
19522;DHT22;9905;52.126;5.596;2023-06-04T07:08:21;15.70;99.90
19522;DHT22;9905;52.126;5.596;2023-06-04T07:10:47;15.90;99.90
19522;DHT22;9905;52.126;5.596;2023-06-04T07:13:16;16.00;99.90
19522;DHT22;9905;52.126;5.596;2023-06-04T07:15:42;16.10;99.90
19522;DHT22;9905;52.126;5.596;2023-06-04T07:18:09;16.20;99.90
19522;DHT22;9905;52.126;5.596;2023-06-04T07:20:36;16.40;99.90
19522;DHT22;9905;52.126;5.596;2023-06-04T07:23:03;16.50;99.90
19522;DHT22;9905;52.126;5.596;2023-06-04T07:25:29;16.60;99.90
19522;DHT22;9905;52.126;5.596;2023-06-04T07:27:56;16.70;99.90
19522;DHT22;9905;52.126;5.596;2023-06-04T07:30:25;16.80;99.90
19522;DHT22;9905;52.126;5.596;2023-06-04T07:32:51;17.00;99.90
19522;DHT22;9905;52.126;5.596;2023-06-04T07:35:18;17.10;99.90
19522;DHT22;9905;52.126;5.596;2023-06-04T07:37:45;17.30;99.90
19522;DHT22;9905;52.126;5.596;2023-06-04T07:40:14;17.50;99.90
19522;DHT22;9905;52.126;5.596;2023-06-04T07:42:42;17.60;99.90
19522;DHT22;9905;52.126;5.596;2023-06-04T07:45:09;17.70;99.90
19522;DHT22;9905;52.126;5.596;2023-06-04T07:47:37;17.90;99.90
19522;DHT22;9905;52.126;5.596;2023-06-04T07:50:05;18.10;99.90
19522;DHT22;9905;52.126;5.596;2023-06-04T07:52:33;18.20;99.90
19522;DHT22;9905;52.126;5.596;2023-06-04T07:55:01;18.40;99.90
19522;DHT22;9905;52.126;5.596;2023-06-04T07:57:29;18.60;99.90
19522;DHT22;9905;52.126;5.596;2023-06-04T07:59:55;18.80;99.90
19522;DHT22;9905;52.126;5.596;2023-06-04T08:02:22;18.90;99.90
19522;DHT22;9905;52.126;5.596;2023-06-04T08:04:51;19.10;99.90
19522;DHT22;9905;52.126;5.596;2023-06-04T08:07:18;19.30;99.90
19522;DHT22;9905;52.126;5.596;2023-06-04T08:09:44;19.40;99.90
19522;DHT22;9905;52.126;5.596;2023-06-04T08:12:11;19.50;99.90
19522;DHT22;9905;52.126;5.596;2023-06-04T08:14:38;19.70;99.90
19522;DHT22;9905;52.126;5.596;2023-06-04T08:17:05;19.70;99.90
19522;DHT22;9905;52.126;5.596;2023-06-04T08:19:31;19.90;99.90
19522;DHT22;9905;52.126;5.596;2023-06-04T08:21:59;20.00;99.90
19522;DHT22;9905;52.126;5.596;2023-06-04T08:24:26;20.20;99.90
19522;DHT22;9905;52.126;5.596;2023-06-04T08:26:53;20.20;99.90
19522;DHT22;9905;52.126;5.596;2023-06-04T08:29:20;20.30;99.90
19522;DHT22;9905;52.126;5.596;2023-06-04T08:31:47;20.40;99.90
19522;DHT22;9905;52.126;5.596;2023-06-04T08:34:13;20.40;99.90
19522;DHT22;9905;52.126;5.596;2023-06-04T08:36:40;20.50;99.90
19522;DHT22;9905;52.126;5.596;2023-06-04T08:39:08;20.50;99.90
19522;DHT22;9905;52.126;5.596;2023-06-04T08:41:42;20.60;99.90
19522;DHT22;9905;52.126;5.596;2023-06-04T08:44:10;20.60;99.90
19522;DHT22;9905;52.126;5.596;2023-06-04T08:46:38;20.80;99.90
19522;DHT22;9905;52.126;5.596;2023-06-04T08:49:06;20.90;99.90
19522;DHT22;9905;52.126;5.596;2023-06-04T08:51:35;21.00;99.90
19522;DHT22;9905;52.126;5.596;2023-06-04T08:54:03;21.10;99.90
19522;DHT22;9905;52.126;5.596;2023-06-04T08:56:32;21.30;99.90
19522;DHT22;9905;52.126;5.596;2023-06-04T08:59:01;21.40;99.90
19522;DHT22;9905;52.126;5.596;2023-06-04T09:01:28;21.40;99.90
19522;DHT22;9905;52.126;5.596;2023-06-04T09:03:55;21.70;99.90
19522;DHT22;9905;52.126;5.596;2023-06-04T09:06:24;21.90;99.90
19522;DHT22;9905;52.126;5.596;2023-06-04T09:08:51;22.00;99.90
19522;DHT22;9905;52.126;5.596;2023-06-04T09:11:21;22.10;99.90
19522;DHT22;9905;52.126;5.596;2023-06-04T09:13:50;22.20;99.90
19522;DHT22;9905;52.126;5.596;2023-06-04T09:16:17;22.40;99.90
19522;DHT22;9905;52.126;5.596;2023-06-04T09:18:45;22.50;99.90
19522;DHT22;9905;52.126;5.596;2023-06-04T09:21:11;22.70;99.90
19522;DHT22;9905;52.126;5.596;2023-06-04T09:23:44;22.70;99.90
19522;DHT22;9905;52.126;5.596;2023-06-04T09:26:11;22.70;99.90
19522;DHT22;9905;52.126;5.596;2023-06-04T09:28:40;22.70;99.90
19522;DHT22;9905;52.126;5.596;2023-06-04T09:31:09;22.80;99.90
19522;DHT22;9905;52.126;5.596;2023-06-04T09:33:43;22.90;99.90
19522;DHT22;9905;52.126;5.596;2023-06-04T09:36:10;23.10;99.90
19522;DHT22;9905;52.126;5.596;2023-06-04T09:38:37;23.30;99.90
19522;DHT22;9905;52.126;5.596;2023-06-04T09:41:04;23.50;99.50
19522;DHT22;9905;52.126;5.596;2023-06-04T09:43:32;23.50;99.10
19522;DHT22;9905;52.126;5.596;2023-06-04T09:46:10;23.60;98.80
19522;DHT22;9905;52.126;5.596;2023-06-04T09:48:38;23.60;98.70
19522;DHT22;9905;52.126;5.596;2023-06-04T09:51:07;23.70;98.00
19522;DHT22;9905;52.126;5.596;2023-06-04T09:53:33;23.70;98.20
19522;DHT22;9905;52.126;5.596;2023-06-04T09:56:02;23.80;98.10
19522;DHT22;9905;52.126;5.596;2023-06-04T09:58:30;24.00;99.50
19522;DHT22;9905;52.126;5.596;2023-06-04T10:00:58;24.10;97.60
19522;DHT22;9905;52.126;5.596;2023-06-04T10:03:30;24.20;96.50
19522;DHT22;9905;52.126;5.596;2023-06-04T10:05:59;24.20;95.90
19522;DHT22;9905;52.126;5.596;2023-06-04T10:08:27;24.30;94.40
19522;DHT22;9905;52.126;5.596;2023-06-04T10:10:55;24.30;94.90
19522;DHT22;9905;52.126;5.596;2023-06-04T10:13:24;24.40;94.90
19522;DHT22;9905;52.126;5.596;2023-06-04T10:15:52;24.60;96.10
19522;DHT22;9905;52.126;5.596;2023-06-04T10:18:20;24.60;94.00
19522;DHT22;9905;52.126;5.596;2023-06-04T10:20:49;24.70;94.20
19522;DHT22;9905;52.126;5.596;2023-06-04T10:23:16;24.80;92.90
19522;DHT22;9905;52.126;5.596;2023-06-04T10:25:48;24.80;93.30
19522;DHT22;9905;52.126;5.596;2023-06-04T10:28:15;24.80;92.50
19522;DHT22;9905;52.126;5.596;2023-06-04T10:30:44;24.50;92.10
19522;DHT22;9905;52.126;5.596;2023-06-04T10:33:11;24.70;92.70
19522;DHT22;9905;52.126;5.596;2023-06-04T10:35:38;24.90;93.00
19522;DHT22;9905;52.126;5.596;2023-06-04T10:38:08;25.00;92.60
19522;DHT22;9905;52.126;5.596;2023-06-04T10:40:35;25.20;92.70
19522;DHT22;9905;52.126;5.596;2023-06-04T10:43:06;25.30;92.80
19522;DHT22;9905;52.126;5.596;2023-06-04T10:45:33;25.40;92.50
19522;DHT22;9905;52.126;5.596;2023-06-04T10:48:00;25.40;91.50
19522;DHT22;9905;52.126;5.596;2023-06-04T10:50:27;25.40;91.40
19522;DHT22;9905;52.126;5.596;2023-06-04T10:52:55;25.60;92.50
19522;DHT22;9905;52.126;5.596;2023-06-04T10:55:24;25.60;90.60
19522;DHT22;9905;52.126;5.596;2023-06-04T10:57:52;25.70;91.70
19522;DHT22;9905;52.126;5.596;2023-06-04T11:00:19;25.90;91.70
19522;DHT22;9905;52.126;5.596;2023-06-04T11:02:54;26.00;90.90
19522;DHT22;9905;52.126;5.596;2023-06-04T11:05:22;26.10;90.10
19522;DHT22;9905;52.126;5.596;2023-06-04T11:07:58;26.20;90.50
19522;DHT22;9905;52.126;5.596;2023-06-04T11:10:31;26.30;90.10
19522;DHT22;9905;52.126;5.596;2023-06-04T11:12:59;26.50;90.90
19522;DHT22;9905;52.126;5.596;2023-06-04T11:15:25;26.70;89.40
19522;DHT22;9905;52.126;5.596;2023-06-04T11:17:55;26.70;90.00
19522;DHT22;9905;52.126;5.596;2023-06-04T11:20:23;26.80;88.90
19522;DHT22;9905;52.126;5.596;2023-06-04T11:22:54;26.80;87.90
19522;DHT22;9905;52.126;5.596;2023-06-04T11:25:21;26.80;90.00
19522;DHT22;9905;52.126;5.596;2023-06-04T11:27:55;26.90;88.90
19522;DHT22;9905;52.126;5.596;2023-06-04T11:30:24;27.00;88.00
19522;DHT22;9905;52.126;5.596;2023-06-04T11:32:59;27.10;86.30
19522;DHT22;9905;52.126;5.596;2023-06-04T11:35:27;26.80;84.30
19522;DHT22;9905;52.126;5.596;2023-06-04T11:37:54;26.70;86.30
19522;DHT22;9905;52.126;5.596;2023-06-04T11:40:21;26.80;88.10
19522;DHT22;9905;52.126;5.596;2023-06-04T11:42:49;26.80;84.90
19522;DHT22;9905;52.126;5.596;2023-06-04T11:45:18;26.90;84.30
19522;DHT22;9905;52.126;5.596;2023-06-04T11:47:47;26.90;87.20
19522;DHT22;9905;52.126;5.596;2023-06-04T11:50:21;27.10;86.50
19522;DHT22;9905;52.126;5.596;2023-06-04T11:52:49;27.10;85.30
19522;DHT22;9905;52.126;5.596;2023-06-04T11:55:16;27.20;84.40
19522;DHT22;9905;52.126;5.596;2023-06-04T11:57:46;27.40;85.30
19522;DHT22;9905;52.126;5.596;2023-06-04T12:00:14;27.50;85.20
19522;DHT22;9905;52.126;5.596;2023-06-04T12:02:51;27.60;86.00
19522;DHT22;9905;52.126;5.596;2023-06-04T12:05:19;27.90;83.70
19522;DHT22;9905;52.126;5.596;2023-06-04T12:07:48;27.90;84.90
19522;DHT22;9905;52.126;5.596;2023-06-04T12:10:16;28.00;85.00
19522;DHT22;9905;52.126;5.596;2023-06-04T12:12:43;28.00;82.10
19522;DHT22;9905;52.126;5.596;2023-06-04T12:15:10;27.90;85.80
19522;DHT22;9905;52.126;5.596;2023-06-04T12:17:37;28.00;82.80
19522;DHT22;9905;52.126;5.596;2023-06-04T12:20:06;27.80;79.80
19522;DHT22;9905;52.126;5.596;2023-06-04T12:22:44;27.60;80.10
19522;DHT22;9905;52.126;5.596;2023-06-04T12:25:11;27.70;83.40
19522;DHT22;9905;52.126;5.596;2023-06-04T12:27:46;27.90;83.40
19522;DHT22;9905;52.126;5.596;2023-06-04T12:30:13;27.90;81.80
19522;DHT22;9905;52.126;5.596;2023-06-04T12:32:41;27.90;82.30
19522;DHT22;9905;52.126;5.596;2023-06-04T12:35:10;28.30;85.20
19522;DHT22;9905;52.126;5.596;2023-06-04T12:37:37;28.60;83.30
19522;DHT22;9905;52.126;5.596;2023-06-04T12:40:06;28.70;82.30
19522;DHT22;9905;52.126;5.596;2023-06-04T12:42:32;28.90;83.80
19522;DHT22;9905;52.126;5.596;2023-06-04T12:44:59;28.80;79.80
19522;DHT22;9905;52.126;5.596;2023-06-04T12:47:26;28.80;81.40
19522;DHT22;9905;52.126;5.596;2023-06-04T12:49:53;28.70;80.70
19522;DHT22;9905;52.126;5.596;2023-06-04T12:52:21;28.70;77.40
19522;DHT22;9905;52.126;5.596;2023-06-04T12:54:48;28.70;78.50
19522;DHT22;9905;52.126;5.596;2023-06-04T12:57:14;28.80;77.50
19522;DHT22;9905;52.126;5.596;2023-06-04T12:59:41;28.90;78.10
19522;DHT22;9905;52.126;5.596;2023-06-04T13:02:08;28.70;77.80
19522;DHT22;9905;52.126;5.596;2023-06-04T13:04:35;28.80;77.60
19522;DHT22;9905;52.126;5.596;2023-06-04T13:07:01;29.10;79.30
19522;DHT22;9905;52.126;5.596;2023-06-04T13:09:30;29.30;78.10
19522;DHT22;9905;52.126;5.596;2023-06-04T13:11:58;29.30;79.00
19522;DHT22;9905;52.126;5.596;2023-06-04T13:14:24;29.30;78.50
19522;DHT22;9905;52.126;5.596;2023-06-04T13:16:51;29.50;80.50
19522;DHT22;9905;52.126;5.596;2023-06-04T13:19:18;29.80;78.60
19522;DHT22;9905;52.126;5.596;2023-06-04T13:21:46;29.70;75.30
19522;DHT22;9905;52.126;5.596;2023-06-04T13:24:12;29.30;73.20
19522;DHT22;9905;52.126;5.596;2023-06-04T13:26:40;28.80;76.90
19522;DHT22;9905;52.126;5.596;2023-06-04T13:29:07;29.00;76.90
19522;DHT22;9905;52.126;5.596;2023-06-04T13:31:34;29.30;77.00
19522;DHT22;9905;52.126;5.596;2023-06-04T13:34:01;29.50;76.30
19522;DHT22;9905;52.126;5.596;2023-06-04T13:36:28;29.80;77.60
19522;DHT22;9905;52.126;5.596;2023-06-04T13:38:54;29.80;74.70
19522;DHT22;9905;52.126;5.596;2023-06-04T13:41:21;29.70;76.90
19522;DHT22;9905;52.126;5.596;2023-06-04T13:43:49;29.90;78.40
19522;DHT22;9905;52.126;5.596;2023-06-04T13:46:16;29.90;74.80
19522;DHT22;9905;52.126;5.596;2023-06-04T13:48:43;29.60;71.80
19522;DHT22;9905;52.126;5.596;2023-06-04T13:51:09;29.10;72.20
19522;DHT22;9905;52.126;5.596;2023-06-04T13:53:36;29.20;74.30
19522;DHT22;9905;52.126;5.596;2023-06-04T13:56:03;29.30;73.60
19522;DHT22;9905;52.126;5.596;2023-06-04T13:58:30;29.40;74.60
19522;DHT22;9905;52.126;5.596;2023-06-04T14:00:58;29.70;74.40
19522;DHT22;9905;52.126;5.596;2023-06-04T14:03:25;29.70;75.40
19522;DHT22;9905;52.126;5.596;2023-06-04T14:05:52;29.90;74.40
19522;DHT22;9905;52.126;5.596;2023-06-04T14:08:18;30.10;73.30
19522;DHT22;9905;52.126;5.596;2023-06-04T14:10:45;29.90;72.20
19522;DHT22;9905;52.126;5.596;2023-06-04T14:13:12;29.90;75.90
19522;DHT22;9905;52.126;5.596;2023-06-04T14:15:39;30.20;74.40
19522;DHT22;9905;52.126;5.596;2023-06-04T14:18:07;30.30;74.20
19522;DHT22;9905;52.126;5.596;2023-06-04T14:20:34;30.30;72.20
19522;DHT22;9905;52.126;5.596;2023-06-04T14:23:01;30.30;72.50
19522;DHT22;9905;52.126;5.596;2023-06-04T14:25:27;30.50;73.80
19522;DHT22;9905;52.126;5.596;2023-06-04T14:27:54;30.60;72.60
19522;DHT22;9905;52.126;5.596;2023-06-04T14:30:21;30.50;73.40
19522;DHT22;9905;52.126;5.596;2023-06-04T14:32:47;30.60;72.90
19522;DHT22;9905;52.126;5.596;2023-06-04T14:35:16;30.60;71.20
19522;DHT22;9905;52.126;5.596;2023-06-04T14:37:42;30.50;73.20
19522;DHT22;9905;52.126;5.596;2023-06-04T14:40:10;30.50;76.10
19522;DHT22;9905;52.126;5.596;2023-06-04T14:42:36;30.70;76.20
19522;DHT22;9905;52.126;5.596;2023-06-04T14:45:04;30.50;75.90
19522;DHT22;9905;52.126;5.596;2023-06-04T14:47:31;30.20;74.90
19522;DHT22;9905;52.126;5.596;2023-06-04T14:49:57;30.00;78.00
19522;DHT22;9905;52.126;5.596;2023-06-04T14:52:25;30.00;77.20
19522;DHT22;9905;52.126;5.596;2023-06-04T14:54:53;30.20;77.40
19522;DHT22;9905;52.126;5.596;2023-06-04T14:57:20;30.20;76.20
19522;DHT22;9905;52.126;5.596;2023-06-04T14:59:48;30.10;77.20
19522;DHT22;9905;52.126;5.596;2023-06-04T15:02:15;29.80;78.60
19522;DHT22;9905;52.126;5.596;2023-06-04T15:04:44;30.00;79.70
19522;DHT22;9905;52.126;5.596;2023-06-04T15:07:11;30.10;79.70
19522;DHT22;9905;52.126;5.596;2023-06-04T15:09:39;30.30;79.60
19522;DHT22;9905;52.126;5.596;2023-06-04T15:12:06;30.30;79.00
19522;DHT22;9905;52.126;5.596;2023-06-04T15:14:33;30.40;80.30
19522;DHT22;9905;52.126;5.596;2023-06-04T15:17:00;30.50;79.90
19522;DHT22;9905;52.126;5.596;2023-06-04T15:19:26;30.50;81.10
19522;DHT22;9905;52.126;5.596;2023-06-04T15:21:53;30.70;80.20
19522;DHT22;9905;52.126;5.596;2023-06-04T15:24:20;30.50;76.90
19522;DHT22;9905;52.126;5.596;2023-06-04T15:26:48;30.30;79.70
19522;DHT22;9905;52.126;5.596;2023-06-04T15:29:15;29.90;79.70
19522;DHT22;9905;52.126;5.596;2023-06-04T15:31:42;29.50;79.70
19522;DHT22;9905;52.126;5.596;2023-06-04T15:34:08;29.50;81.50
19522;DHT22;9905;52.126;5.596;2023-06-04T15:36:36;29.80;81.90
19522;DHT22;9905;52.126;5.596;2023-06-04T15:39:04;30.00;79.90
19522;DHT22;9905;52.126;5.596;2023-06-04T15:41:30;29.90;76.60
19522;DHT22;9905;52.126;5.596;2023-06-04T15:43:59;29.40;76.00
19522;DHT22;9905;52.126;5.596;2023-06-04T15:46:26;29.10;76.70
19522;DHT22;9905;52.126;5.596;2023-06-04T15:48:52;29.00;78.00